Time;durP1;ratioP1;P1;durP2;ratioP2;P2;SDS_P1;SDS_P2;PMS_P1;PMS_P2;Temp;Humidity;BMP_temperature;BMP_pressure;BME280_temperature;BME280_humidity;BME280_pressure;Samples;Min_cycle;Max_cycle;Signal;HPM_P1;HPM_P2
2023/10/01 00:01:46;;;;;;;1325.83;626.33;;;14.40;99.90;;;;;;5058350;28;20487;-86
2023/10/01 00:04:12;;;;;;;1326.77;622.33;;;14.40;99.90;;;;;;5091444;28;20040;-86
2023/10/01 00:06:39;;;;;;;1331.43;628.20;;;14.40;99.90;;;;;;5074725;28;20040;-85
2023/10/01 00:09:05;;;;;;;1323.03;612.97;;;14.40;99.90;;;;;;5075166;28;20072;-86
2023/10/01 00:11:39;;;;;;;1327.33;629.53;;;14.50;99.90;;;;;;5093021;28;20102;-86
2023/10/01 00:14:06;;;;;;;1331.20;621.07;;;14.40;99.90;;;;;;5091955;28;20048;-86
2023/10/01 00:16:32;;;;;;;1327.43;620.70;;;14.40;99.90;;;;;;5092090;28;20078;-86
2023/10/01 00:18:59;;;;;;;1293.63;556.13;;;14.40;99.90;;;;;;5091822;28;20052;-86
2023/10/01 00:21:27;;;;;;;1333.10;629.40;;;14.40;99.90;;;;;;5092874;28;20048;-86
2023/10/01 00:23:54;;;;;;;1306.67;564.57;;;14.40;99.90;;;;;;5092494;28;20079;-86
2023/10/01 00:26:20;;;;;;;1289.33;558.27;;;14.40;99.90;;;;;;5077022;28;20044;-87
2023/10/01 00:28:46;;;;;;;1290.30;558.40;;;14.40;99.90;;;;;;5078568;28;20048;-86
2023/10/01 00:31:13;;;;;;;1285.90;555.13;;;14.40;99.90;;;;;;5074920;28;20489;-86
2023/10/01 00:33:39;;;;;;;1326.97;627.00;;;14.40;99.90;;;;;;5086977;28;20126;-86
2023/10/01 00:36:06;;;;;;;1288.57;556.13;;;14.40;99.90;;;;;;5078139;28;20047;-87
2023/10/01 00:38:31;;;;;;;1319.77;617.57;;;14.40;99.90;;;;;;5096425;28;20040;-86
2023/10/01 00:40:58;;;;;;;1270.37;549.53;;;14.40;99.90;;;;;;5077960;28;20047;-85
2023/10/01 00:43:29;;;;;;;1279.35;551.40;;;14.40;99.90;;;;;;5096836;28;20404;-86
2023/10/01 00:45:56;;;;;;;1284.23;553.60;;;14.40;99.90;;;;;;5078290;28;20048;-85
2023/10/01 00:48:23;;;;;;;1325.97;632.77;;;14.40;99.90;;;;;;5079688;28;20488;-86
2023/10/01 00:50:54;;;;;;;1284.28;558.97;;;14.70;99.90;;;;;;5078149;28;20048;-86
2023/10/01 00:53:21;;;;;;;1285.60;555.65;;;14.40;99.90;;;;;;5096394;28;20062;-86
2023/10/01 00:55:48;;;;;;;1298.30;566.05;;;14.40;99.90;;;;;;5096408;28;20557;-86
2023/10/01 00:58:15;;;;;;;1297.20;564.90;;;14.40;99.90;;;;;;5078020;28;20044;-85
2023/10/01 01:00:43;;;;;;;1324.47;617.30;;;14.40;99.90;;;;;;5096072;28;20135;-86
2023/10/01 01:03:09;;;;;;;1321.80;614.47;;;14.40;99.90;;;;;;5078659;28;20040;-86
2023/10/01 01:05:37;;;;;;;1288.50;560.37;;;14.40;99.90;;;;;;5074547;28;20052;-86
2023/10/01 01:08:22;;;;;;;1296.57;559.93;;;14.30;99.90;;;;;;5060784;28;20044;-86
2023/10/01 01:10:51;;;;;;;1299.47;563.63;;;14.40;99.90;;;;;;5094629;28;20058;-86
2023/10/01 01:13:17;;;;;;;1319.60;614.13;;;14.40;99.90;;;;;;5096287;28;20055;-86
2023/10/01 01:15:46;;;;;;;1288.13;558.63;;;14.40;99.90;;;;;;5095817;28;20040;-86
2023/10/01 01:18:20;;;;;;;1283.87;560.23;;;14.30;99.90;;;;;;5053709;28;20052;-89
2023/10/01 01:20:46;;;;;;;1281.43;555.53;;;14.40;99.90;;;;;;5074569;28;20052;-86
2023/10/01 01:23:17;;;;;;;1272.53;553.97;;;14.40;99.90;;;;;;5075557;28;20127;-86
2023/10/01 01:25:44;;;;;;;1261.72;550.10;;;14.40;99.90;;;;;;5075858;28;20048;-87
2023/10/01 01:28:12;;;;;;;1255.23;550.70;;;14.40;99.90;;;;;;5075780;28;20091;-86
2023/10/01 01:30:47;;;;;;;1316.00;613.97;;;14.40;99.90;;;;;;5071974;28;20110;-86
2023/10/01 01:33:13;;;;;;;1268.53;555.13;;;14.40;99.90;;;;;;5075521;28;20496;-86
2023/10/01 01:35:39;;;;;;;1318.93;621.13;;;14.30;99.90;;;;;;5075866;28;20041;-87
2023/10/01 01:38:07;;;;;;;1259.07;549.70;;;14.40;99.90;;;;;;5073298;28;20111;-86
2023/10/01 01:40:36;;;;;;;1265.90;554.07;;;14.30;99.90;;;;;;5074867;28;20048;-86
2023/10/01 01:46:08;;;;;;;1309.53;605.53;;;14.40;99.90;;;;;;5052669;28;20119;-85
2023/10/01 01:48:37;;;;;;;1257.55;542.83;;;14.30;99.90;;;;;;5036470;28;20064;-86
2023/10/01 01:51:04;;;;;;;1254.30;545.37;;;14.40;99.90;;;;;;5032787;28;20045;-86
2023/10/01 01:53:34;;;;;;;1250.00;549.10;;;14.30;99.90;;;;;;5016749;28;20064;-86
2023/10/01 01:56:08;;;;;;;1244.18;542.92;;;14.30;99.90;;;;;;5033319;28;20048;-86
2023/10/01 01:58:35;;;;;;;1308.20;615.00;;;14.30;99.90;;;;;;5016409;28;20045;-86
2023/10/01 02:01:08;;;;;;;1308.23;623.63;;;14.30;99.90;;;;;;5033831;28;20064;-85
2023/10/01 02:03:39;;;;;;;1316.03;621.13;;;14.30;99.90;;;;;;5042361;28;20389;-85
2023/10/01 02:06:06;;;;;;;1246.73;541.87;;;14.30;99.90;;;;;;5035999;28;20139;-86
2023/10/01 02:08:49;;;;;;;1302.60;619.60;;;14.30;99.90;;;;;;5036204;28;20393;-86
2023/10/01 02:11:18;;;;;;;1308.93;617.60;;;14.30;99.90;;;;;;5042047;28;20485;-86
2023/10/01 02:13:46;;;;;;;1244.70;543.93;;;14.00;99.90;;;;;;5016059;28;20103;-86
2023/10/01 02:19:17;;;;;;;1225.70;536.20;;;14.30;99.90;;;;;;5032971;28;20168;-86
2023/10/01 02:21:49;;;;;;;1227.13;537.28;;;14.30;99.90;;;;;;5039737;28;20079;-86
2023/10/01 02:24:23;;;;;;;1222.85;532.25;;;14.30;99.90;;;;;;5036719;28;20049;-86
2023/10/01 02:26:53;;;;;;;1220.57;539.47;;;14.30;99.90;;;;;;5036538;28;20086;-86
2023/10/01 02:29:25;;;;;;;1224.80;541.00;;;14.30;99.90;;;;;;5036395;28;20536;-86
2023/10/01 02:31:57;;;;;;;1313.73;623.20;;;14.30;99.90;;;;;;5055658;28;20053;-86
2023/10/01 02:34:24;;;;;;;1242.87;542.67;;;14.50;99.90;;;;;;5072956;28;20041;-86
2023/10/01 02:36:51;;;;;;;1258.23;551.23;;;14.30;99.90;;;;;;5074221;28;20492;-87
2023/10/01 02:39:21;;;;;;;1259.73;547.80;;;14.30;99.90;;;;;;5074145;28;20566;-87
2023/10/01 02:44:47;;;;;;;1282.63;554.47;;;14.30;99.90;;;;;;5065863;28;20052;-87
2023/10/01 02:47:16;;;;;;;1325.57;618.17;;;14.30;99.90;;;;;;5073180;28;20079;-86
2023/10/01 02:49:49;;;;;;;1290.23;552.83;;;14.30;99.90;;;;;;5051301;28;20037;-87
2023/10/01 02:52:53;;;;;;;1293.43;560.77;;;14.30;99.90;;;;;;5036039;28;20049;-86
2023/10/01 02:55:19;;;;;;;1294.30;558.43;;;14.30;99.90;;;;;;5054987;28;20053;-86
2023/10/01 02:57:45;;;;;;;1321.97;615.90;;;14.30;99.90;;;;;;5055570;28;20080;-87
2023/10/01 03:02:42;;;;;;;1323.70;611.43;;;14.30;99.90;;;;;;5073357;28;20047;-86
2023/10/01 03:05:18;;;;;;;1323.27;612.57;;;14.30;99.90;;;;;;5073290;28;20041;-86
2023/10/01 03:07:50;;;;;;;1327.40;622.83;;;14.30;99.90;;;;;;5073409;28;20377;-87
2023/10/01 03:10:25;;;;;;;1323.43;619.67;;;14.30;99.90;;;;;;5073636;28;20045;-87
2023/10/01 03:12:58;;;;;;;1275.77;549.03;;;14.30;99.90;;;;;;5055432;28;20048;-86
2023/10/01 03:15:28;;;;;;;1322.60;615.37;;;14.20;99.90;;;;;;5071475;28;20127;-87
2023/10/01 03:17:57;;;;;;;1322.20;613.50;;;14.20;99.90;;;;;;5075008;28;20120;-86
2023/10/01 03:23:11;;;;;;;1303.63;563.43;;;14.30;99.90;;;;;;5093550;28;20067;-86
2023/10/01 03:25:42;;;;;;;1303.53;558.97;;;14.30;99.90;;;;;;5075338;28;20051;-87
2023/10/01 03:28:15;;;;;;;1298.57;557.20;;;14.30;99.90;;;;;;5073345;28;20067;-86
2023/10/01 03:30:46;;;;;;;1320.87;613.33;;;14.30;99.90;;;;;;5086026;28;20044;-87
2023/10/01 03:33:15;;;;;;;1217.93;546.40;;;14.30;99.90;;;;;;5093484;28;20376;-87
2023/10/01 03:35:48;;;;;;;1296.97;614.13;;;14.30;99.90;;;;;;5058066;28;20048;-87
2023/10/01 03:38:22;;;;;;;1215.47;541.03;;;14.50;99.90;;;;;;5074852;28;20044;-87
2023/10/01 03:40:59;;;;;;;1139.43;523.83;;;14.30;99.90;;;;;;5075126;28;20054;-86
2023/10/01 03:43:31;;;;;;;1190.20;540.60;;;14.40;99.90;;;;;;5074278;28;20464;-86
2023/10/01 03:46:09;;;;;;;1272.07;602.13;;;14.40;99.90;;;;;;5075077;28;20055;-86
2023/10/01 03:54:13;;;;;;;1211.00;538.40;;;14.40;99.90;;;;;;4975392;28;20081;-86
2023/10/01 03:56:43;;;;;;;1296.30;617.37;;;14.40;99.90;;;;;;4995417;28;20057;-86
2023/10/01 03:59:16;;;;;;;1137.75;617.75;;;14.40;99.90;;;;;;4988334;28;20061;-85
2023/10/01 04:01:58;;;;;;;1213.13;604.30;;;14.40;99.90;;;;;;4993800;28;20054;-86
2023/10/01 04:04:31;;;;;;;1250.97;609.97;;;14.40;99.90;;;;;;4994654;28;20046;-86
2023/10/01 04:07:00;;;;;;;1271.90;614.23;;;14.50;99.90;;;;;;4994352;28;20045;-85
2023/10/01 04:09:28;;;;;;;1170.70;531.92;;;14.50;99.90;;;;;;5003656;28;20037;-86
2023/10/01 04:12:18;;;;;;;1278.60;612.97;;;14.50;99.90;;;;;;5020930;28;20053;-86
2023/10/01 04:14:48;;;;;;;1279.22;609.00;;;14.50;99.90;;;;;;5010404;28;20053;-86
2023/10/01 04:17:17;;;;;;;1290.90;615.00;;;14.50;99.90;;;;;;4994344;28;20053;-86
2023/10/01 04:20:12;;;;;;;1216.27;537.90;;;14.80;99.90;;;;;;4976592;28;20077;-86
2023/10/01 04:22:40;;;;;;;1235.97;544.60;;;14.50;99.90;;;;;;4994451;28;20084;-87
2023/10/01 04:25:11;;;;;;;1245.33;547.17;;;14.50;99.90;;;;;;4994190;28;20054;-87
2023/10/01 04:27:45;;;;;;;1251.10;551.30;;;14.50;99.90;;;;;;4993468;28;20450;-86
2023/10/01 04:30:12;;;;;;;1299.73;604.80;;;14.50;99.90;;;;;;5029776;28;20076;-87
2023/10/01 04:32:39;;;;;;;1308.27;610.30;;;14.50;99.90;;;;;;5055051;28;20057;-86
2023/10/01 04:35:15;;;;;;;1263.83;552.87;;;14.50;99.90;;;;;;5054188;28;20044;-87
2023/10/01 04:37:43;;;;;;;1267.47;555.80;;;14.60;99.90;;;;;;5054751;28;20088;-86
2023/10/01 04:43:04;;;;;;;1279.72;560.15;;;14.60;99.90;;;;;;5074399;28;20091;-86
2023/10/01 04:45:40;;;;;;;1281.67;559.90;;;14.60;99.90;;;;;;5092846;28;20500;-87
2023/10/01 04:48:15;;;;;;;1280.73;560.17;;;14.60;99.90;;;;;;5092718;28;20067;-87
2023/10/01 04:50:46;;;;;;;1300.82;615.90;;;14.60;99.90;;;;;;5073944;28;20040;-86
2023/10/01 04:53:13;;;;;;;1302.70;604.17;;;14.70;99.90;;;;;;5068712;28;20033;-86
2023/10/01 04:55:42;;;;;;;1300.70;609.93;;;14.70;99.90;;;;;;5092022;28;20077;-87
2023/10/01 04:58:12;;;;;;;1304.40;614.60;;;14.70;99.90;;;;;;5074822;28;20051;-86
2023/10/01 05:00:40;;;;;;;1300.30;610.00;;;14.70;99.90;;;;;;5056859;28;20137;-86
2023/10/01 05:03:06;;;;;;;1294.07;563.17;;;14.70;99.90;;;;;;5073999;28;20044;-86
2023/10/01 05:05:37;;;;;;;1303.97;568.30;;;14.60;99.90;;;;;;5057821;28;20446;-86
2023/10/01 05:08:07;;;;;;;1304.53;613.90;;;14.60;99.90;;;;;;5071585;28;20119;-87
2023/10/01 05:10:50;;;;;;;1296.20;564.13;;;14.60;99.90;;;;;;5072125;28;20040;-86
2023/10/01 05:13:20;;;;;;;1302.03;608.60;;;14.60;99.90;;;;;;5094285;28;20047;-88
2023/10/01 05:15:57;;;;;;;1226.07;554.08;;;14.60;99.90;;;;;;5060896;28;20043;-87
2023/10/01 05:18:28;;;;;;;1013.03;509.05;;;14.60;99.90;;;;;;5096042;28;20048;-87
2023/10/01 05:21:04;;;;;;;1048.38;512.65;;;14.60;99.90;;;;;;5061155;28;20056;-87
2023/10/01 05:23:30;;;;;;;1260.47;598.55;;;14.50;99.90;;;;;;5094745;28;20040;-87
2023/10/01 05:25:56;;;;;;;1243.87;607.60;;;14.50;99.90;;;;;;5077642;28;20400;-87
2023/10/01 05:28:31;;;;;;;1194.50;535.95;;;14.50;99.90;;;;;;5061061;28;20048;-87
2023/10/01 05:30:58;;;;;;;;;;;14.50;99.90;;;;;;5078032;28;20051;-87
2023/10/01 05:33:24;;;;;;;1256.07;600.40;;;14.40;99.90;;;;;;5074565;28;19928;-88
2023/10/01 05:35:54;;;;;;;1174.82;533.80;;;14.40;99.90;;;;;;5073708;28;20044;-87
2023/10/01 05:38:21;;;;;;;1244.10;557.20;;;14.40;99.90;;;;;;5077974;28;20072;-88
2023/10/01 05:40:52;;;;;;;1281.57;571.43;;;14.40;99.90;;;;;;5095636;28;20093;-88
2023/10/01 05:43:18;;;;;;;1282.63;562.80;;;14.40;99.90;;;;;;5077343;28;20075;-87
2023/10/01 05:45:54;;;;;;;1297.30;571.30;;;14.40;99.90;;;;;;5076965;28;20390;-87
2023/10/01 05:48:22;;;;;;;1273.97;601.57;;;14.40;99.90;;;;;;5072921;28;20122;-88
2023/10/01 05:50:49;;;;;;;1301.77;576.53;;;14.40;99.90;;;;;;5057307;28;20053;-88
2023/10/01 05:53:18;;;;;;;1300.40;568.13;;;14.30;99.90;;;;;;5066066;28;20047;-88
2023/10/01 05:55:44;;;;;;;1300.43;579.33;;;14.30;99.90;;;;;;5095142;28;20032;-88
2023/10/01 05:58:14;;;;;;;1266.07;590.10;;;14.40;99.90;;;;;;5095423;28;20507;-87
2023/10/01 06:00:56;;;;;;;1293.87;577.50;;;14.30;99.90;;;;;;5061082;28;20047;-87
2023/10/01 06:03:23;;;;;;;1263.10;592.57;;;14.30;99.90;;;;;;5076261;28;20036;-86
2023/10/01 06:05:50;;;;;;;1284.33;566.50;;;14.30;99.90;;;;;;5076182;28;20039;-87
2023/10/01 06:08:24;;;;;;;1264.83;592.67;;;14.30;99.90;;;;;;5093897;28;20126;-86
2023/10/01 06:11:09;;;;;;;1288.00;570.37;;;14.30;99.90;;;;;;5077084;28;20047;-86
2023/10/01 06:13:37;;;;;;;1288.57;570.23;;;14.30;99.90;;;;;;5094822;28;20040;-87
2023/10/01 06:16:15;;;;;;;1288.57;569.80;;;14.30;99.90;;;;;;5094111;28;20561;-86
2023/10/01 06:18:42;;;;;;;1286.73;570.13;;;14.30;99.90;;;;;;5094174;28;20068;-87
2023/10/01 06:21:11;;;;;;;1262.57;600.20;;;14.30;99.90;;;;;;5094875;28;20110;-87
2023/10/01 06:23:50;;;;;;;1286.47;573.53;;;14.50;99.90;;;;;;5075232;28;20476;-86
2023/10/01 06:26:22;;;;;;;1262.07;593.83;;;14.30;99.90;;;;;;5058141;28;20663;-87
2023/10/01 06:28:51;;;;;;;1287.83;577.13;;;14.30;99.90;;;;;;5095309;28;20082;-90
2023/10/01 06:31:20;;;;;;;1260.87;595.43;;;14.30;99.90;;;;;;5095493;28;20044;-91
2023/10/01 06:33:46;;;;;;;1263.33;590.23;;;14.30;99.90;;;;;;5077506;28;20050;-85
2023/10/01 06:36:15;;;;;;;1289.30;574.67;;;14.30;99.90;;;;;;5094645;28;20046;-87
2023/10/01 06:38:47;;;;;;;1288.87;570.07;;;14.30;99.90;;;;;;5094616;28;20040;-83
2023/10/01 06:41:16;;;;;;;1257.17;583.40;;;14.30;99.90;;;;;;5059972;28;20502;-88
2023/10/01 06:43:54;;;;;;;1292.50;577.30;;;14.30;99.90;;;;;;5077244;28;20075;-85
2023/10/01 06:53:45;;;;;;;1284.50;568.63;;;14.40;99.90;;;;;;5096817;28;20040;-86
2023/10/01 06:56:15;;;;;;;1265.67;594.77;;;14.40;99.90;;;;;;5078664;28;20103;-86
2023/10/01 06:58:41;;;;;;;1299.87;575.83;;;14.50;99.90;;;;;;5081291;28;20052;-86
2023/10/01 07:01:34;;;;;;;1297.53;577.83;;;14.60;99.90;;;;;;5068212;28;20048;-86
2023/10/01 07:03:54;;;;;;;1297.65;579.75;;;14.60;99.90;;;;;;5081063;28;20044;-86
2023/10/01 07:06:21;;;;;;;1300.17;575.70;;;14.70;99.90;;;;;;5079513;28;20109;-85
2023/10/01 07:08:47;;;;;;;1269.37;601.60;;;14.70;99.90;;;;;;5081627;28;20093;-87
2023/10/01 07:11:18;;;;;;;1310.47;581.63;;;14.70;99.90;;;;;;5105113;28;20036;-87
2023/10/01 07:13:44;;;;;;;1274.53;607.00;;;14.70;99.90;;;;;;5070600;28;20040;-86
2023/10/01 07:16:10;;;;;;;1266.63;593.97;;;14.80;99.90;;;;;;5071143;28;20048;-85
2023/10/01 07:18:38;;;;;;;1273.33;599.97;;;14.90;99.90;;;;;;5087725;28;20112;-86
2023/10/01 07:21:09;;;;;;;1272.63;599.57;;;14.90;99.90;;;;;;5087053;28;20107;-85
2023/10/01 07:23:35;;;;;;;1270.23;597.67;;;14.90;99.90;;;;;;5082845;28;20097;-87
2023/10/01 07:26:01;;;;;;;1298.53;574.23;;;15.00;99.90;;;;;;5097479;28;20494;-83
2023/10/01 07:28:27;;;;;;;1270.33;593.67;;;14.90;99.90;;;;;;5062202;28;20082;-87
2023/10/01 07:30:56;;;;;;;1274.70;595.27;;;15.10;99.90;;;;;;5078258;28;20039;-88
2023/10/01 07:33:22;;;;;;;1280.93;610.23;;;15.20;99.90;;;;;;5062390;28;20381;-86
2023/10/01 07:36:01;;;;;;;1308.67;581.67;;;15.20;99.90;;;;;;5096817;28;20056;-88
2023/10/01 07:38:29;;;;;;;1286.00;603.17;;;15.20;99.90;;;;;;5095153;28;20123;-85
2023/10/01 07:40:57;;;;;;;1318.60;577.87;;;15.30;99.90;;;;;;5075802;28;20040;-85
2023/10/01 07:43:29;;;;;;;1326.43;580.33;;;15.20;99.90;;;;;;5074148;28;20046;-86
2023/10/01 07:45:59;;;;;;;1291.90;611.33;;;15.30;99.90;;;;;;5073455;28;20123;-86
2023/10/01 07:48:35;;;;;;;1290.03;615.53;;;15.30;99.90;;;;;;5055766;28;20041;-88
2023/10/01 07:51:03;;;;;;;1335.40;587.57;;;15.40;99.90;;;;;;5078886;28;20368;-87
2023/10/01 07:53:33;;;;;;;1326.57;583.47;;;15.40;99.90;;;;;;5071510;28;20127;-89
2023/10/01 07:56:02;;;;;;;1324.07;580.87;;;15.30;99.90;;;;;;5073098;28;20044;-88
2023/10/01 07:58:47;;;;;;;1288.20;609.27;;;15.40;99.90;;;;;;5038578;28;20041;-86
2023/10/01 08:04:08;;;;;;;1298.50;627.30;;;15.40;99.90;;;;;;5014622;28;20053;-87
2023/10/01 08:06:42;;;;;;;1293.30;617.57;;;15.40;99.90;;;;;;5030792;28;20140;-87
2023/10/01 08:09:12;;;;;;;1329.97;580.03;;;15.40;99.90;;;;;;5014686;28;20433;-87
2023/10/01 08:11:58;;;;;;;1296.17;624.17;;;15.40;99.90;;;;;;5014174;28;20049;-88
2023/10/01 08:14:27;;;;;;;1325.53;587.03;;;15.40;99.90;;;;;;4997800;28;20144;-88
2023/10/01 08:16:57;;;;;;;1330.63;584.97;;;15.40;99.90;;;;;;5014072;28;20049;-87
2023/10/01 08:19:23;;;;;;;1330.27;585.37;;;15.50;99.90;;;;;;5025595;28;20416;-88
2023/10/01 08:21:50;;;;;;;1297.17;629.33;;;15.50;99.90;;;;;;5030571;28;20060;-86
2023/10/01 08:24:33;;;;;;;1293.43;615.50;;;15.60;99.90;;;;;;5014334;28;20044;-87
2023/10/01 08:27:01;;;;;;;1335.93;582.23;;;15.60;99.90;;;;;;5014529;28;20140;-87
2023/10/01 08:29:28;;;;;;;1296.07;617.40;;;15.60;99.90;;;;;;5014545;28;20429;-88
2023/10/01 08:34:24;;;;;;;1341.50;584.13;;;15.70;99.90;;;;;;5027019;28;20508;-87
2023/10/01 08:36:54;;;;;;;1312.07;630.27;;;15.90;99.90;;;;;;5011009;28;20054;-88
2023/10/01 08:39:47;;;;;;;1342.77;589.83;;;15.90;99.90;;;;;;4994715;28;20053;-88
2023/10/01 08:42:14;;;;;;;1297.93;623.13;;;15.90;99.90;;;;;;5045779;28;20048;-88
2023/10/01 08:44:51;;;;;;;1343.67;588.27;;;16.00;99.90;;;;;;5052607;28;20087;-87
2023/10/01 08:47:22;;;;;;;1300.00;617.20;;;16.00;99.90;;;;;;5053514;28;20098;-88
2023/10/01 08:49:57;;;;;;;1301.70;623.60;;;16.00;99.90;;;;;;5056640;28;20052;-88
2023/10/01 08:52:27;;;;;;;;;;;16.10;99.90;;;;;;5056719;28;20091;-87
2023/10/01 08:54:53;;;;;;;1350.97;588.40;;;16.20;99.90;;;;;;5061956;28;19928;-87
2023/10/01 08:57:45;;;;;;;1347.87;589.23;;;16.20;99.90;;;;;;5076344;28;20119;-88
2023/10/01 09:00:17;;;;;;;1301.27;626.97;;;16.20;99.90;;;;;;5058380;28;20040;-88
2023/10/01 09:02:50;;;;;;;1301.83;616.90;;;16.20;99.90;;;;;;5076231;28;20041;-87
2023/10/01 09:05:25;;;;;;;1301.67;633.53;;;16.20;99.90;;;;;;5058216;28;20037;-88
2023/10/01 09:10:56;;;;;;;1350.10;593.93;;;16.30;99.90;;;;;;4971245;28;20050;-88
2023/10/01 09:13:22;;;;;;;1300.33;641.20;;;16.40;99.90;;;;;;4975186;28;20063;-88
2023/10/01 09:15:55;;;;;;;1359.40;603.73;;;16.50;99.90;;;;;;4974987;28;20054;-88
2023/10/01 09:18:25;;;;;;;1350.63;593.77;;;16.60;99.90;;;;;;4976766;28;20065;-86
2023/10/01 09:21:06;;;;;;;1302.97;648.40;;;16.70;99.90;;;;;;4974191;28;20122;-87
2023/10/01 09:23:56;;;;;;;1304.47;633.47;;;16.80;99.90;;;;;;4958776;28;20434;-87
2023/10/01 09:26:53;;;;;;;1305.53;633.93;;;16.90;99.90;;;;;;4974637;28;20059;-88
2023/10/01 09:29:27;;;;;;;1303.72;636.10;;;17.10;99.90;;;;;;4958523;28;20050;-88
2023/10/01 09:31:58;;;;;;;1294.35;638.95;;;17.20;99.90;;;;;;4941838;28;20066;-87
2023/10/01 09:34:36;;;;;;;1303.17;648.10;;;17.20;99.90;;;;;;4955664;29;20047;-87
2023/10/01 09:37:34;;;;;;;1352.97;597.97;;;17.30;99.90;;;;;;4939204;29;20105;-86
2023/10/01 09:40:32;;;;;;;1347.37;592.90;;;17.40;99.90;;;;;;4939241;29;20090;-88
2023/10/01 09:43:02;;;;;;;1301.07;654.20;;;17.60;99.90;;;;;;4956567;28;20050;-87
2023/10/01 09:45:37;;;;;;;1347.67;596.23;;;17.70;99.90;;;;;;5007644;28;20106;-88
2023/10/01 09:48:09;;;;;;;1347.38;598.05;;;17.70;99.90;;;;;;5057164;28;20043;-88
2023/10/01 09:50:41;;;;;;;1355.53;603.73;;;17.80;99.90;;;;;;5075124;28;20400;-88
2023/10/01 09:53:14;;;;;;;1308.30;661.97;;;17.90;99.90;;;;;;5056666;28;20111;-88
2023/10/01 09:55:47;;;;;;;1360.87;599.20;;;18.00;99.90;;;;;;5057379;28;20052;-88
2023/10/01 09:58:24;;;;;;;1363.40;606.70;;;18.00;99.90;;;;;;5075163;28;20041;-88
2023/10/01 10:00:53;;;;;;;1309.77;662.87;;;18.10;99.90;;;;;;5057621;28;20128;-88
2023/10/01 10:03:20;;;;;;;1313.40;673.77;;;18.20;99.90;;;;;;5039359;28;20397;-88
2023/10/01 10:05:47;;;;;;;1310.83;660.77;;;18.30;99.90;;;;;;5043904;28;20086;-88
2023/10/01 10:08:15;;;;;;;1365.20;606.80;;;18.50;99.90;;;;;;5057324;28;20049;-88
2023/10/01 10:10:48;;;;;;;1358.13;593.30;;;18.60;99.90;;;;;;5074845;28;20412;-88
2023/10/01 10:13:37;;;;;;;1364.93;602.63;;;18.80;99.90;;;;;;5046863;28;20404;-87
2023/10/01 10:19:13;;;;;;;1357.37;596.20;;;19.10;99.90;;;;;;5080060;28;20054;-87
2023/10/01 10:22:08;;;;;;;1369.20;616.27;;;19.30;99.90;;;;;;5095052;28;20051;-87
2023/10/01 10:24:47;;;;;;;1360.43;602.60;;;19.30;99.90;;;;;;5073164;28;20605;-88
2023/10/01 10:27:34;;;;;;;1363.10;604.73;;;19.40;99.90;;;;;;5094779;28;20048;-89
2023/10/01 10:30:05;;;;;;;1361.57;603.13;;;19.60;99.90;;;;;;5095019;28;20122;-87
2023/10/01 10:32:44;;;;;;;1317.70;679.27;;;19.70;99.90;;;;;;5093387;28;20056;-88
2023/10/01 10:35:16;;;;;;;1316.40;690.57;;;19.70;99.90;;;;;;5076325;28;20134;-87
2023/10/01 10:37:53;;;;;;;1358.17;609.17;;;19.80;99.90;;;;;;5076590;28;20056;-87
2023/10/01 10:43:01;;;;;;;1362.87;616.47;;;20.00;99.90;;;;;;5094511;28;20051;-88
2023/10/01 10:45:43;;;;;;;1313.97;704.80;;;20.00;99.90;;;;;;5059138;28;20052;-87
2023/10/01 10:48:10;;;;;;;1359.40;616.50;;;20.20;99.90;;;;;;5093008;28;20044;-87
2023/10/01 10:50:57;;;;;;;1308.70;701.83;;;20.30;99.90;;;;;;5076325;28;20052;-87
2023/10/01 10:53:29;;;;;;;1358.93;616.23;;;20.40;99.90;;;;;;5059381;28;20051;-89
2023/10/01 10:56:09;;;;;;;1312.07;709.83;;;20.60;99.90;;;;;;5077188;28;20048;-88
2023/10/01 10:58:41;;;;;;;1373.17;621.80;;;20.70;99.90;;;;;;5075971;28;20035;-88
2023/10/01 11:01:22;;;;;;;1370.30;619.13;;;20.80;99.90;;;;;;5076207;28;20131;-88
2023/10/01 11:03:50;;;;;;;1370.20;624.30;;;20.80;99.90;;;;;;5094050;28;20142;-88
2023/10/01 11:06:17;;;;;;;1318.57;715.70;;;20.80;99.90;;;;;;5075312;28;20059;-87
2023/10/01 11:08:50;;;;;;;1313.87;716.93;;;20.70;99.90;;;;;;5093679;28;20044;-88
2023/10/01 11:11:43;;;;;;;1309.50;712.83;;;20.70;99.90;;;;;;5075719;28;20048;-88
2023/10/01 11:14:18;;;;;;;1357.00;616.27;;;20.60;99.90;;;;;;5093965;28;20557;-88
2023/10/01 11:16:45;;;;;;;1307.85;711.40;;;20.60;99.90;;;;;;5092932;28;20031;-88
2023/10/01 11:19:13;;;;;;;1352.83;619.20;;;20.50;99.90;;;;;;5092984;28;20062;-86
2023/10/01 11:21:55;;;;;;;1348.00;619.67;;;20.50;99.90;;;;;;5058941;28;20094;-88
2023/10/01 11:24:36;;;;;;;1347.13;620.43;;;20.50;99.90;;;;;;5075698;28;20052;-88
2023/10/01 11:27:25;;;;;;;1344.87;616.57;;;20.60;99.90;;;;;;5093336;28;20089;-87
2023/10/01 11:29:58;;;;;;;1297.47;705.97;;;20.60;99.90;;;;;;5093227;28;20504;-88
2023/10/01 11:32:57;;;;;;;1302.43;716.07;;;20.70;99.90;;;;;;5075573;28;20050;-88
2023/10/01 11:35:59;;;;;;;1348.17;616.13;;;20.70;99.90;;;;;;5093420;28;20063;-88
2023/10/01 11:38:25;;;;;;;1339.53;611.13;;;20.80;99.90;;;;;;5092815;28;20032;-88
2023/10/01 11:41:06;;;;;;;1300.47;711.13;;;20.90;99.90;;;;;;5075387;28;20422;-89
2023/10/01 11:43:40;;;;;;;1341.80;615.73;;;21.00;99.90;;;;;;5092127;28;20047;-86
2023/10/01 11:46:23;;;;;;;1346.10;631.43;;;21.10;99.90;;;;;;5075057;28;20044;-88
2023/10/01 11:49:02;;;;;;;1298.50;720.57;;;21.20;99.90;;;;;;5092725;28;20082;-89
2023/10/01 11:52:01;;;;;;;1345.13;618.53;;;21.30;99.90;;;;;;5074872;28;20404;-89
2023/10/01 11:54:44;;;;;;;1312.97;736.30;;;21.30;99.90;;;;;;5075632;28;20177;-88
2023/10/01 11:57:25;;;;;;;1309.63;725.73;;;21.30;99.90;;;;;;5075359;28;20408;-89
2023/10/01 11:59:55;;;;;;;1300.83;721.50;;;21.30;99.90;;;;;;5074271;28;20043;-87
2023/10/01 12:02:29;;;;;;;1300.37;724.83;;;21.30;99.90;;;;;;5075305;28;20151;-89
2023/10/01 12:04:57;;;;;;;1339.00;624.53;;;21.20;99.90;;;;;;5093149;28;20040;-88
2023/10/01 12:07:31;;;;;;;1335.10;618.83;;;21.30;99.90;;;;;;5092867;28;20044;-87
2023/10/01 12:10:07;;;;;;;1342.60;622.25;;;21.30;99.90;;;;;;5072142;28;20130;-92
2023/10/01 12:12:39;;;;;;;1335.50;617.75;;;21.20;99.90;;;;;;5092187;28;20179;-89
2023/10/01 12:17:53;;;;;;;1299.30;723.07;;;21.30;99.90;;;;;;5074396;28;20048;-87
2023/10/01 12:20:22;;;;;;;1297.70;721.40;;;21.40;99.90;;;;;;5070435;28;20056;-90
2023/10/01 12:25:47;;;;;;;1361.18;633.90;;;21.60;99.90;;;;;;5048044;28;20053;-88
2023/10/01 12:28:27;;;;;;;1356.50;628.13;;;21.60;99.90;;;;;;5059428;28;20048;-88
2023/10/01 12:31:09;;;;;;;1310.10;727.33;;;21.70;99.90;;;;;;5051777;28;20425;-87
2023/10/01 12:33:40;;;;;;;1314.27;741.00;;;21.70;99.90;;;;;;5075399;28;20072;-85
2023/10/01 12:36:33;;;;;;;1363.00;635.17;;;21.80;99.90;;;;;;5043095;28;20080;-84
2023/10/01 12:41:47;;;;;;;1360.57;627.77;;;21.90;99.90;;;;;;5082403;28;20043;-84
2023/10/01 12:44:34;;;;;;;1359.97;627.92;;;21.80;99.90;;;;;;5076543;28;20044;-88
2023/10/01 12:47:07;;;;;;;1358.03;631.47;;;21.90;99.90;;;;;;5061737;28;20068;-88
2023/10/01 12:49:36;;;;;;;1314.97;742.80;;;22.10;99.90;;;;;;5061714;28;20419;-86
2023/10/01 12:52:14;;;;;;;1360.63;627.73;;;22.30;99.90;;;;;;5069891;28;20495;-87
2023/10/01 12:54:41;;;;;;;1363.53;634.27;;;22.50;99.90;;;;;;5061441;28;20049;-86
2023/10/01 12:57:18;;;;;;;1359.20;634.67;;;22.60;99.90;;;;;;5022139;28;20068;-84
2023/10/01 12:59:46;;;;;;;1360.13;640.23;;;22.70;99.90;;;;;;5055838;28;20049;-88
2023/10/01 13:07:45;;;;;;;1353.60;636.90;;;22.80;99.90;;;;;;5044931;28;20132;-86
2023/10/01 13:10:12;;;;;;;1304.13;758.27;;;22.80;99.90;;;;;;5037734;28;20052;-88
2023/10/01 13:12:56;;;;;;;1363.17;650.47;;;22.80;99.90;;;;;;5024735;28;20041;-87
2023/10/01 13:15:33;;;;;;;1358.90;638.70;;;22.70;99.90;;;;;;5054321;28;20049;-87
2023/10/01 13:18:01;;;;;;;1307.53;752.13;;;22.80;99.90;;;;;;5037018;28;20056;-88
2023/10/01 13:20:31;;;;;;;1349.67;637.50;;;22.80;99.90;;;;;;5050917;28;20068;-88
2023/10/01 13:23:06;;;;;;;1301.83;763.33;;;22.80;99.90;;;;;;5073736;28;20060;-89
2023/10/01 13:25:36;;;;;;;1352.55;638.78;;;22.90;99.90;;;;;;5056917;28;20063;-88